Time;durP1;ratioP1;P1;durP2;ratioP2;P2;SDS_P1;SDS_P2;PMS_P1;PMS_P2;Temp;Humidity;BMP_temperature;BMP_pressure;BME280_temperature;BME280_humidity;BME280_pressure;Samples;Min_cycle;Max_cycle;Signal;HPM_P1;HPM_P2
2023/05/10 00:01:23;;;;;;;14.73;10.07;;;14.30;99.90;;;;;;4995052;28;20134;-66
2023/05/10 00:03:49;;;;;;;12.50;8.70;;;14.30;99.90;;;;;;4994141;28;20042;-66
2023/05/10 00:06:15;;;;;;;11.98;8.60;;;14.20;99.90;;;;;;4994906;28;20046;-66
2023/05/10 00:08:41;;;;;;;14.02;9.70;;;14.20;99.90;;;;;;4994955;28;20501;-66
2023/05/10 00:11:06;;;;;;;15.07;9.77;;;14.20;99.90;;;;;;4994929;28;20046;-66
2023/05/10 00:13:32;;;;;;;13.98;9.60;;;14.20;99.90;;;;;;4993579;28;20498;-66
2023/05/10 00:15:58;;;;;;;14.35;9.02;;;14.20;99.90;;;;;;4977495;28;20038;-66
2023/05/10 00:18:24;;;;;;;15.85;10.48;;;14.20;99.90;;;;;;4994077;28;20095;-65
2023/05/10 00:20:49;;;;;;;13.07;9.63;;;14.20;99.90;;;;;;4993942;28;20038;-66
2023/05/10 00:23:15;;;;;;;14.25;9.57;;;14.20;99.90;;;;;;4995545;28;20107;-66
2023/05/10 00:25:41;;;;;;;13.07;8.90;;;14.20;99.90;;;;;;4962260;28;20504;-66
2023/05/10 00:28:06;;;;;;;14.98;10.02;;;14.20;99.90;;;;;;4994666;28;20129;-66
2023/05/10 00:30:32;;;;;;;11.35;8.38;;;14.20;99.90;;;;;;4994564;28;20125;-65
2023/05/10 00:32:58;;;;;;;5.38;4.30;;;14.20;99.90;;;;;;4993632;28;20049;-65
2023/05/10 00:35:24;;;;;;;5.65;4.00;;;14.20;99.90;;;;;;4993492;28;20038;-66
2023/05/10 00:37:49;;;;;;;4.40;3.30;;;14.10;99.90;;;;;;4994491;28;20046;-66
2023/05/10 00:40:15;;;;;;;3.30;2.55;;;14.10;99.90;;;;;;4994614;28;20050;-65
2023/05/10 00:42:41;;;;;;;1.42;1.00;;;14.00;99.90;;;;;;4994219;28;20039;-65
2023/05/10 00:45:07;;;;;;;0.98;0.80;;;13.90;99.90;;;;;;4994482;28;20116;-65
2023/05/10 00:47:33;;;;;;;0.90;0.80;;;13.90;99.90;;;;;;4994331;28;20058;-65
2023/05/10 00:50:00;;;;;;;2.00;1.10;;;13.80;99.90;;;;;;4995190;28;20050;-66
2023/05/10 00:52:27;;;;;;;2.47;1.52;;;13.70;99.90;;;;;;4993180;28;20054;-66
2023/05/10 00:54:54;;;;;;;3.67;3.28;;;13.70;99.90;;;;;;4994222;28;20073;-65
2023/05/10 00:57:20;;;;;;;5.70;3.72;;;13.70;99.90;;;;;;4994344;28;20402;-65
2023/05/10 00:59:46;;;;;;;6.13;4.95;;;13.60;99.90;;;;;;4994214;28;20167;-65
2023/05/10 01:02:13;;;;;;;6.68;5.88;;;13.60;99.90;;;;;;4994343;28;20125;-66
2023/05/10 01:04:39;;;;;;;8.35;6.65;;;13.60;99.90;;;;;;4994664;28;20042;-66
2023/05/10 01:07:05;;;;;;;7.68;6.25;;;13.60;99.90;;;;;;4994143;28;20046;-66
2023/05/10 01:09:31;;;;;;;8.15;5.95;;;13.50;99.90;;;;;;4994105;28;20201;-66
2023/05/10 01:11:57;;;;;;;7.72;5.93;;;13.50;99.90;;;;;;4994123;28;20065;-66
2023/05/10 01:14:24;;;;;;;6.13;5.03;;;13.50;99.90;;;;;;4994099;28;20105;-65
2023/05/10 01:16:50;;;;;;;7.40;5.43;;;13.50;99.90;;;;;;4992967;28;20046;-65
2023/05/10 01:19:23;;;;;;;6.88;5.53;;;13.40;99.90;;;;;;4994602;28;20069;-65
2023/05/10 01:21:55;;;;;;;6.93;5.15;;;13.40;99.90;;;;;;4994575;28;20038;-65
2023/05/10 01:24:57;;;;;;;6.20;5.10;;;13.40;99.90;;;;;;4994023;28;20046;-65
2023/05/10 01:27:47;;;;;;;8.20;4.97;;;13.40;99.90;;;;;;4993346;28;20046;-65
2023/05/10 01:30:41;;;;;;;7.38;5.38;;;13.40;99.90;;;;;;4994534;28;20105;-66
2023/05/10 01:33:24;;;;;;;8.98;5.55;;;13.30;99.90;;;;;;4996749;28;20050;-66
2023/05/10 01:36:19;;;;;;;8.48;5.90;;;13.40;99.90;;;;;;4997764;28;20058;-66
2023/05/10 01:38:51;;;;;;;8.55;5.93;;;13.40;99.90;;;;;;4998352;28;20050;-65
2023/05/10 01:41:19;;;;;;;8.02;5.70;;;13.30;99.90;;;;;;4997659;28;20085;-65
2023/05/10 01:44:14;;;;;;;9.02;5.65;;;13.40;99.90;;;;;;4997388;28;20513;-65
2023/05/10 01:46:40;;;;;;;7.43;5.22;;;13.40;99.90;;;;;;4997599;28;20046;-65
2023/05/10 01:49:15;;;;;;;8.85;6.28;;;13.30;99.90;;;;;;4998072;28;20042;-66
2023/05/10 01:51:51;;;;;;;9.18;6.28;;;13.40;99.90;;;;;;4997859;28;20053;-65
2023/05/10 01:54:19;;;;;;;9.02;6.13;;;13.30;99.90;;;;;;4997864;28;20054;-65
2023/05/10 01:56:50;;;;;;;8.73;6.03;;;13.30;99.90;;;;;;4996243;28;20054;-66
2023/05/10 01:59:19;;;;;;;9.95;6.43;;;13.30;99.90;;;;;;4997698;28;20057;-66
2023/05/10 02:01:47;;;;;;;9.50;6.35;;;13.30;99.90;;;;;;4996069;28;20046;-65
2023/05/10 02:04:16;;;;;;;8.75;6.30;;;13.30;99.90;;;;;;4996901;28;20364;-66
2023/05/10 02:06:44;;;;;;;7.78;5.93;;;13.40;99.90;;;;;;4997695;28;20054;-65
2023/05/10 02:09:11;;;;;;;8.90;6.28;;;13.40;99.90;;;;;;4997744;28;20073;-65
2023/05/10 02:11:39;;;;;;;7.40;5.90;;;13.30;99.90;;;;;;4997111;28;20137;-65
2023/05/10 02:14:08;;;;;;;8.05;5.60;;;13.40;99.90;;;;;;4979944;28;20402;-66
2023/05/10 02:16:36;;;;;;;9.70;6.45;;;13.30;99.90;;;;;;4997087;28;20121;-66
2023/05/10 02:19:03;;;;;;;7.70;5.32;;;13.30;99.90;;;;;;4997012;28;20050;-66
2023/05/10 02:21:31;;;;;;;8.23;5.72;;;13.30;99.90;;;;;;4997422;28;20053;-65
2023/05/10 02:23:58;;;;;;;8.65;6.07;;;13.30;99.90;;;;;;4996959;28;20056;-65
2023/05/10 02:26:25;;;;;;;12.18;7.53;;;13.30;99.90;;;;;;4996211;28;20042;-66
2023/05/10 02:28:54;;;;;;;9.68;6.50;;;13.30;99.90;;;;;;4997380;28;20038;-66
2023/05/10 02:31:21;;;;;;;7.50;6.03;;;13.30;99.90;;;;;;4996843;28;20108;-66
2023/05/10 02:33:48;;;;;;;7.57;5.55;;;13.40;99.90;;;;;;4996784;28;20510;-66
2023/05/10 02:36:16;;;;;;;9.02;6.00;;;13.40;99.90;;;;;;4997467;28;20386;-66
2023/05/10 02:38:43;;;;;;;9.00;5.65;;;13.40;99.90;;;;;;4996695;28;20054;-65
2023/05/10 02:41:10;;;;;;;8.15;5.70;;;13.40;99.90;;;;;;4996559;28;20034;-65
2023/05/10 02:43:37;;;;;;;8.43;5.75;;;13.40;99.90;;;;;;4995780;28;20086;-66
2023/05/10 02:46:03;;;;;;;9.45;5.78;;;13.40;99.90;;;;;;4995855;28;20081;-66
2023/05/10 02:48:29;;;;;;;8.95;6.55;;;13.40;99.90;;;;;;4995541;28;20050;-66
2023/05/10 02:51:03;;;;;;;8.25;5.88;;;13.40;99.90;;;;;;4996488;28;20057;-66
2023/05/10 02:53:32;;;;;;;9.23;6.15;;;13.40;99.90;;;;;;4997234;28;20065;-66
2023/05/10 02:56:03;;;;;;;8.68;6.10;;;13.30;99.90;;;;;;4996895;28;20102;-66
2023/05/10 02:58:29;;;;;;;8.68;6.13;;;13.30;99.90;;;;;;4994829;28;20397;-66
2023/05/10 03:00:55;;;;;;;9.15;5.93;;;13.30;99.90;;;;;;4996190;28;20125;-66
2023/05/10 03:03:20;;;;;;;8.25;6.00;;;13.30;99.90;;;;;;4994947;28;20125;-66
2023/05/10 03:05:46;;;;;;;8.60;6.80;;;13.30;99.90;;;;;;4996108;28;20105;-66
2023/05/10 03:08:12;;;;;;;8.85;6.10;;;13.30;99.90;;;;;;4996435;28;20089;-66
2023/05/10 03:11:16;;;;;;;13.18;5.95;;;13.30;99.90;;;;;;4996086;28;20046;-66
2023/05/10 03:14:06;;;;;;;8.38;6.05;;;13.30;99.90;;;;;;4996549;28;20108;-65
2023/05/10 03:16:58;;;;;;;7.88;5.97;;;13.20;99.90;;;;;;4996813;28;20147;-66
2023/05/10 03:19:30;;;;;;;7.90;5.63;;;13.10;99.90;;;;;;4995948;28;20050;-66
2023/05/10 03:22:03;;;;;;;7.53;5.45;;;13.10;99.90;;;;;;4995837;28;20050;-66
2023/05/10 03:24:30;;;;;;;6.97;4.80;;;13.10;99.90;;;;;;4996403;28;20046;-65
2023/05/10 03:26:57;;;;;;;7.22;5.32;;;13.10;99.90;;;;;;4995809;28;20057;-66
2023/05/10 03:29:25;;;;;;;6.10;4.68;;;13.00;99.90;;;;;;4994538;28;20066;-65
2023/05/10 03:31:51;;;;;;;7.00;4.93;;;13.00;99.90;;;;;;4995735;28;20101;-65
2023/05/10 03:34:22;;;;;;;8.05;5.20;;;13.00;99.90;;;;;;4994672;28;20042;-66
2023/05/10 03:36:48;;;;;;;8.07;5.32;;;13.00;99.90;;;;;;4995531;28;20046;-66
2023/05/10 03:39:14;;;;;;;7.45;5.63;;;12.90;99.90;;;;;;4995547;28;20047;-66
2023/05/10 03:41:39;;;;;;;7.93;5.53;;;12.90;99.90;;;;;;4978871;28;20096;-65
2023/05/10 03:44:05;;;;;;;8.55;6.10;;;12.90;99.90;;;;;;4995991;28;20051;-66
2023/05/10 03:46:31;;;;;;;8.15;5.93;;;12.90;99.90;;;;;;4995437;28;20520;-66
2023/05/10 03:48:56;;;;;;;9.45;6.35;;;13.00;99.90;;;;;;4995312;28;20073;-66
2023/05/10 03:51:22;;;;;;;10.63;6.70;;;13.00;99.90;;;;;;4994193;28;20038;-66
2023/05/10 03:53:48;;;;;;;8.95;6.10;;;12.90;99.90;;;;;;4995831;28;20046;-65
2023/05/10 03:56:13;;;;;;;9.10;6.63;;;13.00;99.90;;;;;;4996336;28;20062;-65
2023/05/10 03:58:39;;;;;;;8.60;6.38;;;12.90;99.90;;;;;;4995721;28;20176;-65
2023/05/10 04:01:05;;;;;;;10.70;7.18;;;13.00;99.90;;;;;;4995084;28;20045;-66
2023/05/10 04:03:31;;;;;;;8.90;6.32;;;12.90;99.90;;;;;;4995059;28;20046;-66
2023/05/10 04:06:01;;;;;;;10.43;7.00;;;12.90;99.90;;;;;;4995013;28;20050;-65
2023/05/10 04:08:27;;;;;;;11.20;7.32;;;12.90;99.90;;;;;;4995526;28;20078;-65
2023/05/10 04:10:52;;;;;;;10.25;7.20;;;12.90;99.90;;;;;;4994993;28;20054;-65
2023/05/10 04:13:18;;;;;;;10.77;6.82;;;12.90;99.90;;;;;;4994600;28;20046;-65
2023/05/10 04:15:44;;;;;;;9.80;7.43;;;12.90;99.90;;;;;;4995650;28;20046;-65
2023/05/10 04:18:10;;;;;;;12.02;8.20;;;12.90;99.90;;;;;;4995399;28;20382;-65
2023/05/10 04:20:35;;;;;;;11.57;7.57;;;12.90;99.90;;;;;;4993603;28;20043;-65
2023/05/10 04:23:01;;;;;;;12.77;8.10;;;12.90;99.90;;;;;;4994039;28;20050;-65
2023/05/10 04:25:27;;;;;;;12.68;8.52;;;13.00;99.90;;;;;;4995249;28;20054;-65
2023/05/10 04:27:53;;;;;;;12.00;8.20;;;12.90;99.90;;;;;;4993540;28;20115;-65
2023/05/10 04:30:18;;;;;;;13.20;8.75;;;12.90;99.90;;;;;;4994602;28;20049;-65
2023/05/10 04:32:44;;;;;;;12.95;8.25;;;12.90;99.90;;;;;;4993440;28;20096;-65
2023/05/10 04:35:10;;;;;;;13.88;8.50;;;12.90;99.90;;;;;;4994532;28;20490;-65
2023/05/10 04:37:36;;;;;;;13.75;8.63;;;12.90;99.90;;;;;;4994546;28;20050;-65
2023/05/10 04:40:03;;;;;;;13.63;8.70;;;12.90;99.90;;;;;;4995054;28;20042;-65
2023/05/10 04:42:28;;;;;;;12.45;8.23;;;13.00;99.90;;;;;;4995017;28;20394;-65
2023/05/10 04:44:54;;;;;;;13.52;8.30;;;12.90;99.90;;;;;;4993316;28;20042;-65
2023/05/10 04:47:20;;;;;;;14.40;8.93;;;13.00;99.90;;;;;;4994458;28;20046;-65
2023/05/10 04:49:46;;;;;;;13.60;8.40;;;13.00;99.90;;;;;;4994230;28;20462;-65
2023/05/10 04:52:11;;;;;;;13.32;8.43;;;13.00;99.90;;;;;;4994045;28;20125;-66
2023/05/10 04:54:37;;;;;;;13.00;8.60;;;13.00;99.90;;;;;;4994105;28;20061;-64
2023/05/10 04:57:03;;;;;;;13.13;7.93;;;13.00;99.90;;;;;;4994584;28;20050;-65
2023/05/10 04:59:28;;;;;;;11.43;7.43;;;12.90;99.90;;;;;;4994261;28;20525;-65
2023/05/10 05:01:54;;;;;;;14.25;8.15;;;12.90;99.90;;;;;;4977675;28;20137;-65
2023/05/10 05:04:20;;;;;;;12.43;7.53;;;12.90;99.90;;;;;;4994183;28;20093;-65
2023/05/10 05:06:45;;;;;;;11.32;7.65;;;12.90;99.90;;;;;;4995517;28;20057;-64
2023/05/10 05:09:11;;;;;;;11.88;6.95;;;12.90;99.90;;;;;;5000651;28;20046;-64
2023/05/10 05:11:37;;;;;;;14.65;8.38;;;12.80;99.90;;;;;;5001214;28;20048;-65
2023/05/10 05:14:02;;;;;;;11.77;7.50;;;12.80;99.90;;;;;;5000948;28;20382;-65
2023/05/10 05:16:30;;;;;;;13.23;7.72;;;12.80;99.90;;;;;;5000620;28;20057;-65
2023/05/10 05:18:56;;;;;;;10.73;7.13;;;12.80;99.90;;;;;;5000859;28;20081;-65
2023/05/10 05:21:22;;;;;;;10.48;7.00;;;12.80;99.90;;;;;;5000537;28;20090;-64
2023/05/10 05:23:47;;;;;;;11.73;6.97;;;12.80;99.90;;;;;;5000518;28;20050;-65
2023/05/10 05:26:14;;;;;;;10.93;6.70;;;12.90;99.90;;;;;;5001308;28;20046;-65
2023/05/10 05:28:40;;;;;;;11.65;6.78;;;12.80;99.90;;;;;;5000542;28;20042;-65
2023/05/10 05:31:09;;;;;;;9.43;5.78;;;12.80;99.90;;;;;;5000507;28;20042;-65
2023/05/10 05:33:35;;;;;;;9.80;5.50;;;12.80;99.90;;;;;;5000282;28;20493;-65
2023/05/10 05:36:02;;;;;;;8.57;5.90;;;12.80;99.90;;;;;;5000387;28;20085;-65
2023/05/10 05:38:28;;;;;;;9.00;5.70;;;12.80;99.90;;;;;;5000448;28;20482;-65
2023/05/10 05:40:53;;;;;;;9.13;5.00;;;12.80;99.90;;;;;;4999183;28;20050;-65
2023/05/10 05:43:19;;;;;;;6.53;4.65;;;12.80;99.90;;;;;;4999376;28;20054;-65
2023/05/10 05:45:45;;;;;;;7.90;4.40;;;12.80;99.90;;;;;;5000385;28;20140;-65
2023/05/10 05:48:11;;;;;;;7.43;4.88;;;12.80;99.90;;;;;;5000366;28;20047;-64
2023/05/10 05:50:36;;;;;;;7.55;5.07;;;12.80;99.90;;;;;;5000291;28;20176;-64
2023/05/10 05:53:02;;;;;;;7.05;4.35;;;12.70;99.90;;;;;;5000564;28;20049;-65
2023/05/10 05:55:29;;;;;;;6.50;4.60;;;12.70;99.90;;;;;;4999885;28;20137;-65
2023/05/10 05:57:55;;;;;;;5.38;2.65;;;12.70;99.90;;;;;;5000839;28;20050;-64
2023/05/10 06:00:21;;;;;;;2.22;1.55;;;12.70;99.90;;;;;;5000342;28;20069;-64
2023/05/10 06:02:47;;;;;;;3.47;1.50;;;12.70;99.90;;;;;;5000543;28;20080;-65
2023/05/10 06:05:13;;;;;;;2.97;0.75;;;12.60;99.90;;;;;;5000460;28;20050;-64
2023/05/10 06:07:42;;;;;;;1.30;0.88;;;12.60;99.90;;;;;;4999936;28;20046;-65
2023/05/10 06:10:08;;;;;;;2.00;0.98;;;12.60;99.90;;;;;;5000174;28;20525;-65
2023/05/10 06:12:34;;;;;;;0.90;0.80;;;12.60;99.90;;;;;;4999041;28;20042;-65
2023/05/10 06:15:00;;;;;;;1.05;0.70;;;12.60;99.90;;;;;;5000765;28;20043;-65
2023/05/10 06:17:26;;;;;;;1.65;0.80;;;12.60;99.90;;;;;;4998996;28;20112;-66
2023/05/10 06:19:52;;;;;;;1.10;1.00;;;12.60;99.90;;;;;;4995974;28;20429;-65
2023/05/10 06:22:17;;;;;;;1.33;0.80;;;12.60;99.90;;;;;;4980394;28;20112;-65
2023/05/10 06:24:43;;;;;;;2.08;0.95;;;12.60;99.90;;;;;;4997227;28;20157;-65
2023/05/10 06:27:09;;;;;;;1.10;0.80;;;12.60;99.90;;;;;;4996945;28;20046;-65
2023/05/10 06:29:34;;;;;;;1.17;0.85;;;12.60;99.90;;;;;;4996933;28;20129;-65
2023/05/10 06:32:00;;;;;;;1.45;0.90;;;12.60;99.90;;;;;;4996836;28;20042;-65
2023/05/10 06:34:26;;;;;;;2.00;0.90;;;12.60;99.90;;;;;;4996785;28;20050;-65
2023/05/10 06:36:51;;;;;;;1.23;0.98;;;12.70;99.90;;;;;;4995468;28;20054;-65
2023/05/10 06:39:17;;;;;;;1.20;0.90;;;12.70;99.90;;;;;;4997236;28;20050;-65
2023/05/10 06:41:43;;;;;;;0.95;0.77;;;12.70;99.90;;;;;;4996846;28;20046;-65
2023/05/10 06:44:09;;;;;;;1.88;0.98;;;12.70;99.90;;;;;;4996693;28;20047;-65
2023/05/10 06:46:35;;;;;;;1.33;0.80;;;12.70;99.90;;;;;;4995874;28;20042;-64
2023/05/10 06:49:00;;;;;;;1.10;0.80;;;12.70;99.90;;;;;;4995563;28;20084;-65
2023/05/10 06:51:26;;;;;;;2.10;1.58;;;12.70;99.90;;;;;;4996437;28;20105;-65
2023/05/10 06:53:51;;;;;;;2.05;1.80;;;12.70;99.90;;;;;;4996483;28;20054;-65
2023/05/10 06:56:17;;;;;;;1.10;0.80;;;12.70;99.90;;;;;;4997039;28;20470;-65
2023/05/10 06:58:43;;;;;;;2.00;1.80;;;12.70;99.90;;;;;;4996945;28;20057;-65
2023/05/10 07:01:08;;;;;;;0.85;0.70;;;12.70;99.90;;;;;;4995302;28;20125;-65
2023/05/10 07:03:34;;;;;;;1.05;0.77;;;12.70;99.90;;;;;;4996578;28;20042;-65
2023/05/10 07:06:04;;;;;;;1.00;0.73;;;12.70;99.90;;;;;;4996911;28;20129;-65
2023/05/10 07:08:31;;;;;;;1.05;0.60;;;12.80;99.90;;;;;;4996189;28;20512;-65
2023/05/10 07:11:04;;;;;;;1.02;0.88;;;12.70;99.90;;;;;;4996084;28;20498;-64
2023/05/10 07:13:31;;;;;;;0.90;0.50;;;12.80;99.90;;;;;;4995591;28;20407;-64
2023/05/10 07:15:58;;;;;;;0.80;0.60;;;12.80;99.90;;;;;;4995998;28;20054;-66
2023/05/10 07:18:24;;;;;;;0.73;0.50;;;12.80;99.90;;;;;;4996019;28;20039;-66
2023/05/10 07:20:49;;;;;;;1.02;0.40;;;12.70;99.90;;;;;;4996155;28;20129;-66
2023/05/10 07:23:15;;;;;;;0.40;0.30;;;12.80;99.90;;;;;;4994609;28;20046;-67
2023/05/10 07:25:41;;;;;;;1.30;0.30;;;12.80;99.90;;;;;;4995830;28;20050;-66
2023/05/10 07:28:06;;;;;;;0.30;0.20;;;12.80;99.90;;;;;;4995764;28;20061;-66
2023/05/10 07:30:32;;;;;;;0.30;0.20;;;12.80;99.90;;;;;;4995410;28;20078;-65
2023/05/10 07:32:58;;;;;;;0.50;0.28;;;12.80;99.90;;;;;;4995415;28;20049;-65
2023/05/10 07:35:24;;;;;;;0.52;0.40;;;12.70;99.90;;;;;;4995570;28;20038;-65
2023/05/10 07:37:50;;;;;;;1.23;0.40;;;12.70;99.90;;;;;;4978880;28;20488;-66
2023/05/10 07:40:16;;;;;;;1.45;0.40;;;12.70;99.90;;;;;;4995470;28;20078;-65
2023/05/10 07:42:41;;;;;;;0.90;0.50;;;12.70;99.90;;;;;;4995474;28;20053;-66
2023/05/10 07:45:08;;;;;;;1.20;0.65;;;12.70;99.90;;;;;;4996231;28;20056;-65
2023/05/10 07:47:33;;;;;;;1.38;0.98;;;12.70;99.90;;;;;;4994146;28;20089;-65
2023/05/10 07:49:59;;;;;;;2.38;1.65;;;12.70;99.90;;;;;;4978101;28;20085;-64
2023/05/10 07:52:25;;;;;;;2.15;1.30;;;12.70;99.90;;;;;;4995316;28;20042;-65
2023/05/10 07:54:50;;;;;;;2.38;1.38;;;12.70;99.90;;;;;;4995445;28;20058;-65
2023/05/10 07:57:17;;;;;;;2.65;1.75;;;12.60;99.90;;;;;;4994619;28;20240;-64
2023/05/10 07:59:44;;;;;;;3.28;1.80;;;12.60;99.90;;;;;;4995201;28;20108;-66
2023/05/10 08:02:10;;;;;;;2.83;1.90;;;12.60;99.90;;;;;;4995038;28;20057;-66
2023/05/10 08:04:35;;;;;;;4.60;2.65;;;12.60;99.90;;;;;;4995500;28;20046;-66
2023/05/10 08:07:01;;;;;;;2.22;1.77;;;12.60;99.90;;;;;;4995098;28;20042;-65
2023/05/10 08:09:26;;;;;;;3.10;2.13;;;12.50;99.90;;;;;;4995216;28;20096;-65
2023/05/10 08:11:52;;;;;;;2.88;1.80;;;12.50;99.90;;;;;;4995412;28;20043;-64
2023/05/10 08:14:18;;;;;;;3.17;2.10;;;12.50;99.90;;;;;;4994109;28;20050;-65
2023/05/10 08:16:43;;;;;;;3.15;1.92;;;12.50;99.90;;;;;;4995831;28;20065;-65
2023/05/10 08:19:09;;;;;;;2.90;2.40;;;12.50;99.90;;;;;;4994992;28;20042;-66
2023/05/10 08:21:35;;;;;;;4.07;2.83;;;12.50;99.90;;;;;;4995421;28;20042;-65
2023/05/10 08:24:01;;;;;;;4.47;3.20;;;12.50;99.90;;;;;;4994869;28;20493;-65
2023/05/10 08:26:27;;;;;;;4.30;3.25;;;12.50;99.90;;;;;;4994874;28;20065;-65
2023/05/10 08:28:53;;;;;;;5.32;3.25;;;12.50;99.90;;;;;;4994842;28;20047;-65
2023/05/10 08:31:19;;;;;;;5.30;3.50;;;12.50;99.90;;;;;;4995371;28;20134;-65
2023/05/10 08:33:44;;;;;;;4.40;3.10;;;12.50;99.90;;;;;;4993594;28;20050;-66
2023/05/10 08:36:11;;;;;;;5.45;3.60;;;12.50;99.90;;;;;;4994665;28;20124;-66
2023/05/10 08:38:37;;;;;;;4.47;3.22;;;12.50;99.90;;;;;;4994665;28;20050;-65
2023/05/10 08:41:05;;;;;;;4.78;3.45;;;12.60;99.90;;;;;;4994281;28;20057;-65
2023/05/10 08:43:31;;;;;;;5.13;3.97;;;12.50;99.90;;;;;;4994943;28;20050;-65
2023/05/10 08:46:02;;;;;;;4.07;3.47;;;12.60;99.90;;;;;;4994550;28;20137;-65
2023/05/10 08:48:29;;;;;;;3.25;2.63;;;12.60;99.90;;;;;;4994861;28;20105;-65
2023/05/10 08:51:00;;;;;;;3.97;3.03;;;12.60;99.90;;;;;;4995098;28;20081;-65
2023/05/10 08:53:28;;;;;;;3.20;2.90;;;12.60;99.90;;;;;;4994528;28;20101;-64
2023/05/10 08:55:55;;;;;;;4.45;2.78;;;12.60;99.90;;;;;;4994487;28;20064;-65
2023/05/10 08:58:21;;;;;;;3.00;2.42;;;12.60;99.90;;;;;;4994399;28;20057;-65
2023/05/10 09:00:52;;;;;;;4.00;3.03;;;12.60;99.90;;;;;;4993321;28;20053;-65
2023/05/10 09:03:18;;;;;;;3.28;2.80;;;12.60;99.90;;;;;;4993740;28;20042;-65
2023/05/10 09:05:44;;;;;;;3.88;3.20;;;12.70;99.90;;;;;;4993365;28;20061;-65
2023/05/10 09:08:11;;;;;;;4.85;3.03;;;12.70;99.90;;;;;;4993993;28;20486;-64
2023/05/10 09:10:39;;;;;;;3.33;2.97;;;12.70;99.90;;;;;;4992997;28;20054;-65
2023/05/10 09:13:05;;;;;;;4.13;3.47;;;12.70;99.90;;;;;;4993332;28;20047;-65
2023/05/10 09:15:31;;;;;;;3.63;3.10;;;12.70;99.90;;;;;;4993993;28;20555;-65
2023/05/10 09:17:59;;;;;;;3.53;2.75;;;12.70;99.90;;;;;;4994096;28;20137;-65
2023/05/10 09:20:24;;;;;;;4.15;3.30;;;12.70;99.90;;;;;;4994073;28;20056;-65
2023/05/10 09:22:50;;;;;;;4.60;3.30;;;12.70;99.90;;;;;;4994980;28;20043;-66
2023/05/10 09:25:16;;;;;;;4.25;3.45;;;12.70;99.90;;;;;;4994767;28;20073;-65
2023/05/10 09:27:46;;;;;;;5.18;3.90;;;12.70;99.90;;;;;;4994157;28;20486;-65
2023/05/10 09:30:17;;;;;;;3.00;2.63;;;12.70;99.90;;;;;;4993181;28;20058;-65
2023/05/10 09:32:46;;;;;;;4.05;2.35;;;12.80;99.90;;;;;;4994124;28;20410;-66
2023/05/10 09:35:16;;;;;;;2.95;2.10;;;12.90;99.90;;;;;;4994412;28;20390;-66
2023/05/10 09:37:46;;;;;;;2.55;2.22;;;12.80;99.90;;;;;;4993818;28;20506;-65
2023/05/10 09:40:15;;;;;;;3.03;2.50;;;12.80;99.90;;;;;;4992890;28;20062;-65
2023/05/10 09:42:50;;;;;;;2.83;2.38;;;12.90;99.90;;;;;;4993902;28;20047;-65
2023/05/10 09:45:16;;;;;;;5.13;2.55;;;12.90;99.90;;;;;;4994666;28;20102;-66
2023/05/10 09:47:41;;;;;;;2.08;1.80;;;12.90;99.90;;;;;;4994229;28;20552;-66
2023/05/10 09:50:08;;;;;;;1.85;1.50;;;12.90;99.90;;;;;;4994467;28;20481;-65
2023/05/10 09:52:51;;;;;;;2.83;2.00;;;12.80;99.90;;;;;;4977069;28;20053;-66
2023/05/10 09:55:19;;;;;;;1.63;1.30;;;12.90;99.90;;;;;;4997703;28;20066;-65
2023/05/10 09:57:47;;;;;;;2.00;1.50;;;12.90;99.90;;;;;;4997580;28;20057;-66
2023/05/10 10:00:19;;;;;;;2.15;1.65;;;12.90;99.90;;;;;;4996617;28;20133;-65
2023/05/10 10:02:47;;;;;;;2.92;1.70;;;12.90;99.90;;;;;;4997544;28;20046;-65
2023/05/10 10:05:13;;;;;;;2.47;1.73;;;12.90;99.90;;;;;;4997086;28;20115;-66
2023/05/10 10:07:39;;;;;;;2.38;1.30;;;13.00;99.90;;;;;;4998189;28;20518;-65
2023/05/10 10:10:11;;;;;;;1.90;1.23;;;13.00;99.90;;;;;;4997391;28;20598;-64
2023/05/10 10:12:37;;;;;;;1.67;1.27;;;13.00;99.90;;;;;;4997356;28;20502;-66
2023/05/10 10:15:04;;;;;;;1.20;0.90;;;13.00;99.90;;;;;;4996626;28;20556;-66
2023/05/10 10:17:31;;;;;;;1.10;0.90;;;13.00;99.90;;;;;;4980533;28;20081;-66
2023/05/10 10:19:58;;;;;;;2.55;1.10;;;13.00;99.90;;;;;;4997222;28;20129;-66
2023/05/10 10:22:23;;;;;;;1.33;0.93;;;13.00;99.90;;;;;;4996729;28;20406;-65
2023/05/10 10:24:50;;;;;;;1.13;1.00;;;13.10;99.90;;;;;;4997418;28;20050;-65
2023/05/10 10:27:24;;;;;;;2.03;1.38;;;13.10;99.90;;;;;;4997053;28;20092;-65
2023/05/10 10:30:22;;;;;;;2.22;1.73;;;13.10;99.90;;;;;;4997139;28;20093;-65
2023/05/10 10:33:02;;;;;;;2.75;1.60;;;13.20;99.90;;;;;;4996941;28;20548;-65
2023/05/10 10:35:30;;;;;;;2.42;1.52;;;13.30;99.90;;;;;;4996784;28;20515;-65
2023/05/10 10:37:56;;;;;;;2.67;1.70;;;13.30;99.90;;;;;;4997628;28;20376;-65
2023/05/10 10:40:26;;;;;;;3.20;1.95;;;13.40;99.90;;;;;;4997016;28;20082;-65
2023/05/10 10:42:53;;;;;;;2.92;2.33;;;13.40;99.90;;;;;;4996685;28;20046;-65
2023/05/10 10:45:19;;;;;;;3.47;1.90;;;13.40;99.90;;;;;;4979758;28;20054;-65
2023/05/10 10:47:45;;;;;;;4.55;2.22;;;13.40;99.90;;;;;;4996655;28;20057;-65
2023/05/10 10:50:15;;;;;;;4.38;2.33;;;13.40;99.90;;;;;;4997210;28;20371;-65
2023/05/10 10:52:45;;;;;;;3.17;2.47;;;13.40;99.90;;;;;;4997454;28;20111;-66
2023/05/10 10:55:18;;;;;;;3.17;2.58;;;13.40;99.90;;;;;;4996643;28;20124;-65
2023/05/10 10:57:45;;;;;;;3.50;2.60;;;13.40;99.90;;;;;;4996164;28;20052;-65
2023/05/10 11:00:32;;;;;;;4.45;2.83;;;13.40;99.90;;;;;;4996469;28;20100;-65
2023/05/10 11:03:13;;;;;;;3.45;2.97;;;13.40;99.90;;;;;;4996391;28;20487;-65
2023/05/10 11:05:46;;;;;;;3.63;3.08;;;13.50;99.90;;;;;;4994648;28;20069;-65
2023/05/10 11:08:26;;;;;;;3.30;2.58;;;13.50;99.90;;;;;;4995915;28;20508;-65
2023/05/10 11:10:58;;;;;;;2.92;2.40;;;13.50;99.90;;;;;;4995909;28;20471;-65
2023/05/10 11:13:40;;;;;;;4.20;2.33;;;13.60;99.90;;;;;;4996154;28;20455;-65
2023/05/10 11:16:24;;;;;;;2.90;2.13;;;13.60;99.90;;;;;;4995063;28;20104;-65
2023/05/10 11:19:09;;;;;;;2.80;2.05;;;13.60;99.90;;;;;;4996115;28;20053;-65
2023/05/10 11:21:48;;;;;;;3.05;1.95;;;13.70;99.90;;;;;;4995930;28;20042;-64
2023/05/10 11:24:19;;;;;;;4.10;2.88;;;13.70;99.90;;;;;;4979674;28;20058;-64
2023/05/10 11:26:46;;;;;;;3.33;2.40;;;13.80;99.90;;;;;;4996738;28;20050;-65
2023/05/10 11:29:13;;;;;;;3.78;2.15;;;13.90;99.90;;;;;;4995874;28;20046;-65
2023/05/10 11:31:43;;;;;;;2.55;1.75;;;14.00;99.90;;;;;;4995829;28;20054;-66
2023/05/10 11:34:09;;;;;;;1.92;1.42;;;14.00;99.90;;;;;;4995803;28;20039;-66
2023/05/10 11:36:36;;;;;;;1.50;1.10;;;14.10;99.90;;;;;;4995563;28;20050;-65
2023/05/10 11:39:03;;;;;;;1.48;1.08;;;14.10;99.90;;;;;;4995468;28;20506;-65
2023/05/10 11:41:30;;;;;;;2.15;0.90;;;14.20;99.90;;;;;;4994377;28;20050;-66
2023/05/10 11:43:57;;;;;;;1.20;0.85;;;14.30;99.90;;;;;;4995467;28;20053;-65
2023/05/10 11:46:25;;;;;;;2.03;0.93;;;14.30;99.90;;;;;;4995572;28;20085;-65
2023/05/10 11:49:03;;;;;;;2.78;1.00;;;14.30;99.90;;;;;;4995791;28;20057;-64
2023/05/10 11:51:32;;;;;;;1.42;0.98;;;14.30;99.90;;;;;;4995352;28;20112;-65
2023/05/10 11:53:58;;;;;;;1.52;0.95;;;14.30;99.90;;;;;;4995375;28;20088;-64
2023/05/10 11:56:25;;;;;;;1.35;0.90;;;14.30;99.90;;;;;;4994996;28;20414;-65
2023/05/10 11:58:56;;;;;;;1.33;0.80;;;14.20;99.90;;;;;;4995359;28;20072;-65
2023/05/10 12:01:23;;;;;;;1.25;0.90;;;14.20;99.90;;;;;;4994069;28;20038;-65
2023/05/10 12:03:51;;;;;;;1.42;1.05;;;14.20;99.90;;;;;;4995772;28;20410;-65
2023/05/10 12:06:18;;;;;;;1.40;1.02;;;14.30;99.90;;;;;;4995153;28;20058;-65
2023/05/10 12:08:52;;;;;;;2.00;1.08;;;14.30;99.90;;;;;;4993997;28;20097;-64
2023/05/10 12:11:18;;;;;;;1.85;1.00;;;14.30;99.90;;;;;;4994853;28;20502;-65
2023/05/10 12:13:47;;;;;;;1.67;1.05;;;14.20;99.90;;;;;;4994991;28;20096;-64
2023/05/10 12:16:17;;;;;;;1.50;1.00;;;14.30;99.90;;;;;;4994326;28;20047;-65
2023/05/10 12:18:43;;;;;;;1.83;1.10;;;14.30;99.90;;;;;;4994877;28;20134;-65
2023/05/10 12:21:12;;;;;;;1.88;1.33;;;14.30;99.90;;;;;;4977867;28;20062;-65
2023/05/10 12:23:39;;;;;;;2.17;1.40;;;14.30;99.90;;;;;;4993661;28;20105;-65
2023/05/10 12:26:05;;;;;;;3.15;2.03;;;14.40;99.90;;;;;;4994856;28;20089;-65
2023/05/10 12:28:32;;;;;;;3.08;2.00;;;14.40;99.90;;;;;;4994808;28;20199;-65
2023/05/10 12:30:59;;;;;;;4.50;2.40;;;14.50;99.90;;;;;;4994769;28;20141;-65
2023/05/10 12:33:25;;;;;;;5.15;2.63;;;14.60;99.90;;;;;;4994966;28;20047;-65
2023/05/10 12:35:56;;;;;;;4.25;2.67;;;14.60;99.90;;;;;;4993060;28;20541;-65
2023/05/10 12:38:32;;;;;;;5.03;2.85;;;14.50;99.90;;;;;;4994532;28;20046;-65
2023/05/10 12:41:02;;;;;;;4.38;2.60;;;14.50;99.90;;;;;;4994966;28;20046;-64
2023/05/10 12:43:28;;;;;;;4.28;2.67;;;14.50;99.90;;;;;;4993600;28;20054;-65
2023/05/10 12:45:54;;;;;;;3.88;2.60;;;14.50;99.90;;;;;;4994099;28;20126;-65
2023/05/10 12:48:20;;;;;;;6.15;2.72;;;14.50;99.90;;;;;;4994286;28;20053;-65
2023/05/10 12:50:47;;;;;;;4.97;3.20;;;14.50;99.90;;;;;;4993015;28;20053;-64